Fort Spring, West Virginia
Current Conditions -  °F | °C
As of 3:15 PM on Monday 24 Nov 2014 (Local Time) from KLWB Reporting Station
Clear Clear  
Wind Chill: 21°   Ceiling: Unl
Heat Index: 21°   Visibility: 10mi
Dew Point:   Wind: 23mph
Humidity: 28%   Direction: 240°WSW
Pressure: 29.68"   Gusts: 35mph
Location:  37.74°N, 80.54°W
Report Text: KLWB 242015Z AUTO 24020G30KT 10SM CLR 21/02 A2968 RMK AO2 LTG DSNT S T02130018
Loading
Personal Weather Stations






























Interactive Weather Map New forecast layout! Learn more

10-Day Weather Forecast

Advertisements
Track Severe Weather on mobile